Time;durP1;ratioP1;P1;durP2;ratioP2;P2;SDS_P1;SDS_P2;PMS_P1;PMS_P2;Temp;Humidity;BMP_temperature;BMP_pressure;BME280_temperature;BME280_humidity;BME280_pressure;Samples;Min_cycle;Max_cycle;Signal;HPM_P1;HPM_P2
2022/04/13 00:02:02;;;;;;;6.75;2.80;;;17.90;76.80;;;;;;4981905;28;20133;-86
2022/04/13 00:04:27;;;;;;;8.98;2.45;;;17.90;77.30;;;;;;5014771;28;20022;-86
2022/04/13 00:06:53;;;;;;;6.57;2.33;;;17.90;77.70;;;;;;4998779;28;20100;-85
2022/04/13 00:09:19;;;;;;;6.47;2.80;;;17.80;77.90;;;;;;4981875;28;20544;-85
2022/04/13 00:11:44;;;;;;;9.55;3.17;;;17.80;78.10;;;;;;5014383;28;20117;-86
2022/04/13 00:14:10;;;;;;;7.28;2.70;;;17.80;78.10;;;;;;5014139;28;20040;-85
2022/04/13 00:16:36;;;;;;;9.38;2.80;;;17.80;78.70;;;;;;5014605;28;20049;-86
2022/04/13 00:19:02;;;;;;;7.03;2.60;;;17.80;78.40;;;;;;4998107;28;20464;-85
2022/04/13 00:21:28;;;;;;;6.47;3.03;;;17.80;78.80;;;;;;5014626;28;20030;-85
2022/04/13 00:23:56;;;;;;;6.78;2.95;;;17.70;79.00;;;;;;4998056;28;20040;-85
2022/04/13 00:26:22;;;;;;;10.15;2.42;;;17.70;79.20;;;;;;5014083;28;20037;-86
2022/04/13 00:28:48;;;;;;;8.65;2.72;;;17.70;79.40;;;;;;5013997;28;20026;-85
2022/04/13 00:31:14;;;;;;;7.28;2.80;;;17.70;79.60;;;;;;4981593;28;20037;-85
2022/04/13 00:33:39;;;;;;;12.98;3.08;;;17.60;79.80;;;;;;4997939;28;20029;-85
2022/04/13 00:36:05;;;;;;;6.78;2.67;;;17.60;80.00;;;;;;4997717;28;20026;-85
2022/04/13 00:38:31;;;;;;;10.95;3.17;;;17.50;80.10;;;;;;4997813;28;20029;-85
2022/04/13 00:40:56;;;;;;;12.75;2.92;;;17.50;80.20;;;;;;5015089;28;20080;-85
2022/04/13 00:43:24;;;;;;;16.30;3.50;;;17.40;80.40;;;;;;4997368;28;20943;-85
2022/04/13 00:45:51;;;;;;;9.25;3.30;;;17.40;80.70;;;;;;4998170;28;20448;-86
2022/04/13 00:48:32;;;;;;;10.65;3.40;;;17.40;81.00;;;;;;5014075;28;20085;-85
2022/04/13 00:50:58;;;;;;;7.38;2.53;;;17.30;81.10;;;;;;5014163;28;20022;-86
2022/04/13 00:53:25;;;;;;;8.60;2.67;;;17.30;81.20;;;;;;4996945;28;20038;-85
2022/04/13 00:55:55;;;;;;;7.13;2.55;;;17.30;81.50;;;;;;5013579;28;20038;-85
2022/04/13 00:58:22;;;;;;;8.30;2.92;;;17.30;81.80;;;;;;5013659;28;20057;-85
2022/04/13 01:00:49;;;;;;;7.38;3.00;;;17.20;81.90;;;;;;5013333;28;20046;-86
2022/04/13 01:03:20;;;;;;;10.68;4.35;;;17.20;81.80;;;;;;5013414;28;20026;-85
2022/04/13 01:05:48;;;;;;;9.35;3.05;;;17.20;82.20;;;;;;5013363;28;20080;-85
2022/04/13 01:08:15;;;;;;;11.35;3.15;;;17.10;82.50;;;;;;5013213;28;20124;-86
2022/04/13 01:10:42;;;;;;;7.07;2.75;;;17.10;82.70;;;;;;5020990;28;20557;-85
2022/04/13 01:13:08;;;;;;;9.68;3.00;;;17.00;82.80;;;;;;5033182;28;20479;-85
2022/04/13 01:15:35;;;;;;;8.02;3.30;;;17.00;83.00;;;;;;5016795;28;20044;-86
2022/04/13 01:18:01;;;;;;;8.23;2.90;;;17.00;83.10;;;;;;5016811;28;20033;-86
2022/04/13 01:20:27;;;;;;;9.13;3.10;;;16.90;83.20;;;;;;5033191;28;20497;-86
2022/04/13 01:22:52;;;;;;;7.30;2.95;;;16.90;83.30;;;;;;5016461;28;20105;-85
2022/04/13 01:25:18;;;;;;;6.97;2.97;;;16.90;83.40;;;;;;5016348;28;20036;-86
2022/04/13 01:27:44;;;;;;;12.15;3.28;;;16.80;83.50;;;;;;5034301;28;20037;-85
2022/04/13 01:30:11;;;;;;;9.00;3.05;;;16.80;83.70;;;;;;5032654;28;20061;-84
2022/04/13 01:32:37;;;;;;;6.53;2.88;;;16.70;83.70;;;;;;5032702;28;20022;-85
2022/04/13 01:35:02;;;;;;;9.25;3.03;;;16.70;84.30;;;;;;5032716;28;20084;-85
2022/04/13 01:37:28;;;;;;;9.13;3.22;;;16.70;83.80;;;;;;5016067;28;20033;-85
2022/04/13 01:39:54;;;;;;;7.70;2.83;;;16.60;83.90;;;;;;5015971;28;20423;-85
2022/04/13 01:42:20;;;;;;;8.93;3.15;;;16.60;84.00;;;;;;5015989;28;20044;-86
2022/04/13 01:44:47;;;;;;;7.95;2.70;;;16.60;84.10;;;;;;5032681;28;20033;-85
2022/04/13 01:47:13;;;;;;;11.85;4.07;;;16.50;84.30;;;;;;5032281;28;20033;-85
2022/04/13 01:49:39;;;;;;;9.75;3.35;;;16.50;84.40;;;;;;5032727;28;20060;-85
2022/04/13 01:52:07;;;;;;;9.48;3.67;;;16.50;84.60;;;;;;5032277;28;20022;-86
2022/04/13 01:54:32;;;;;;;9.77;3.42;;;16.40;84.60;;;;;;5033141;28;20025;-86
2022/04/13 01:56:58;;;;;;;7.43;3.40;;;16.40;84.70;;;;;;5016190;28;20487;-86
2022/04/13 01:59:24;;;;;;;7.60;3.20;;;16.40;85.00;;;;;;5031789;28;20037;-85
2022/04/13 02:01:50;;;;;;;7.82;3.20;;;16.40;85.20;;;;;;5015835;28;20141;-86
2022/04/13 02:04:25;;;;;;;9.73;3.13;;;16.40;85.30;;;;;;5031884;28;20128;-86
2022/04/13 02:06:51;;;;;;;10.68;3.38;;;16.30;85.40;;;;;;5032009;28;20025;-86
2022/04/13 02:09:18;;;;;;;8.40;3.25;;;16.30;85.50;;;;;;5032059;28;20116;-86
2022/04/13 02:11:47;;;;;;;10.75;3.35;;;16.30;85.70;;;;;;5032229;28;20103;-86
2022/04/13 02:14:13;;;;;;;10.70;3.97;;;16.30;86.00;;;;;;5031815;28;20091;-86
2022/04/13 02:16:39;;;;;;;10.45;3.95;;;16.20;86.10;;;;;;5015765;28;20029;-86
2022/04/13 02:19:11;;;;;;;10.73;3.28;;;16.20;86.00;;;;;;5015564;28;20364;-85
2022/04/13 02:21:37;;;;;;;7.85;3.30;;;16.20;85.60;;;;;;5016241;28;20029;-85
2022/04/13 02:24:04;;;;;;;8.50;3.83;;;16.10;85.00;;;;;;5033220;28;20101;-86
2022/04/13 02:26:29;;;;;;;11.98;3.80;;;16.10;84.90;;;;;;5031646;28;20025;-87
2022/04/13 02:28:55;;;;;;;10.70;3.60;;;16.00;84.90;;;;;;5015691;28;20037;-86
2022/04/13 02:31:21;;;;;;;7.25;3.38;;;16.00;85.00;;;;;;5015313;28;20040;-87
2022/04/13 02:33:48;;;;;;;8.95;3.90;;;16.00;84.70;;;;;;5031617;28;20029;-87
2022/04/13 02:36:14;;;;;;;12.82;4.70;;;16.00;85.00;;;;;;5033005;28;20021;-87
2022/04/13 02:38:39;;;;;;;7.78;3.85;;;15.90;85.00;;;;;;5033250;28;20100;-85
2022/04/13 02:41:05;;;;;;;9.48;3.70;;;15.90;85.40;;;;;;4999016;28;20618;-87
2022/04/13 02:43:31;;;;;;;9.73;3.63;;;15.90;85.90;;;;;;5032609;28;20021;-86
2022/04/13 02:45:57;;;;;;;10.13;3.88;;;15.90;85.50;;;;;;5015054;28;20061;-85
2022/04/13 02:48:23;;;;;;;11.63;4.53;;;15.90;85.30;;;;;;5014858;28;20095;-85
2022/04/13 02:50:49;;;;;;;9.20;3.42;;;15.90;85.90;;;;;;5033033;28;20065;-85
2022/04/13 02:53:15;;;;;;;9.70;3.85;;;15.80;85.30;;;;;;5015220;28;20545;-86
2022/04/13 02:55:42;;;;;;;8.20;3.78;;;15.80;86.10;;;;;;5015523;28;20037;-86
2022/04/13 02:58:07;;;;;;;11.07;3.92;;;15.80;85.80;;;;;;5015080;28;20091;-85
2022/04/13 03:00:34;;;;;;;9.77;3.80;;;15.80;86.00;;;;;;5031304;28;20132;-86
2022/04/13 03:03:00;;;;;;;10.45;4.13;;;15.80;85.90;;;;;;5015200;28;20072;-85
2022/04/13 03:05:25;;;;;;;10.25;3.92;;;15.70;85.80;;;;;;5015130;28;20037;-85
2022/04/13 03:07:51;;;;;;;9.18;4.20;;;15.70;85.90;;;;;;5035603;28;20076;-85
2022/04/13 03:10:17;;;;;;;14.07;4.45;;;15.70;85.90;;;;;;5018778;28;20483;-85
2022/04/13 03:12:43;;;;;;;8.95;3.65;;;15.70;86.40;;;;;;5035725;28;20112;-86
2022/04/13 03:15:09;;;;;;;12.25;4.25;;;15.70;86.50;;;;;;5019173;28;20033;-86
2022/04/13 03:17:35;;;;;;;8.95;4.50;;;15.70;86.60;;;;;;5018586;28;20076;-85
2022/04/13 03:20:01;;;;;;;9.13;4.63;;;15.60;86.50;;;;;;5002788;28;20026;-85
2022/04/13 03:22:27;;;;;;;9.65;4.55;;;15.60;87.30;;;;;;5036350;28;20538;-85
2022/04/13 03:24:53;;;;;;;9.40;4.60;;;15.60;87.10;;;;;;5019045;28;20113;-85
2022/04/13 03:27:19;;;;;;;9.40;4.05;;;15.60;87.10;;;;;;5034892;28;20025;-85
2022/04/13 03:29:45;;;;;;;8.00;5.25;;;15.60;87.20;;;;;;5018554;28;20380;-86
2022/04/13 03:32:11;;;;;;;9.15;4.97;;;15.50;87.30;;;;;;5035086;28;20476;-85
2022/04/13 03:34:36;;;;;;;10.88;5.10;;;15.50;87.60;;;;;;5034900;28;20416;-86
2022/04/13 03:37:02;;;;;;;9.75;4.50;;;15.50;87.80;;;;;;5036621;28;20418;-86
2022/04/13 03:39:29;;;;;;;8.75;4.68;;;15.50;88.20;;;;;;5034574;28;20281;-86
2022/04/13 03:41:55;;;;;;;12.70;5.30;;;15.50;88.70;;;;;;5034976;28;20022;-85
2022/04/13 03:44:21;;;;;;;10.32;4.90;;;15.50;89.20;;;;;;5018187;28;20489;-86
2022/04/13 03:46:47;;;;;;;8.68;4.90;;;15.50;89.40;;;;;;5029579;28;20045;-86
2022/04/13 03:49:13;;;;;;;11.68;4.82;;;15.50;89.60;;;;;;5039302;28;20091;-86
2022/04/13 03:51:39;;;;;;;9.50;5.40;;;15.50;90.00;;;;;;5036668;28;20034;-86
2022/04/13 03:54:05;;;;;;;8.05;5.15;;;15.50;90.10;;;;;;5035207;28;20033;-86
2022/04/13 03:56:30;;;;;;;8.70;5.25;;;15.50;90.20;;;;;;5018605;28;20065;-86
2022/04/13 03:58:57;;;;;;;11.10;5.03;;;15.40;90.30;;;;;;5035189;28;20036;-86
2022/04/13 04:01:23;;;;;;;9.32;5.13;;;15.40;90.40;;;;;;5034864;28;20054;-85
2022/04/13 04:03:49;;;;;;;8.40;4.95;;;15.40;90.50;;;;;;5018646;28;20325;-86
2022/04/13 04:06:14;;;;;;;10.55;5.03;;;15.40;90.60;;;;;;5035054;28;20048;-86
2022/04/13 04:08:40;;;;;;;10.93;5.00;;;15.30;90.70;;;;;;5034651;28;20029;-86
2022/04/13 04:11:05;;;;;;;11.00;5.20;;;15.30;90.80;;;;;;5018151;28;20036;-86
2022/04/13 04:13:31;;;;;;;11.40;5.80;;;15.30;90.80;;;;;;5017910;28;20586;-86
2022/04/13 04:15:57;;;;;;;9.25;4.88;;;15.20;90.90;;;;;;5017614;28;20061;-86
2022/04/13 04:18:23;;;;;;;11.90;5.25;;;15.20;90.90;;;;;;5001520;28;20033;-86
2022/04/13 04:20:49;;;;;;;11.63;5.30;;;15.10;90.80;;;;;;5018045;28;20029;-86
2022/04/13 04:23:14;;;;;;;9.93;5.45;;;15.10;90.90;;;;;;5034248;28;20040;-86
2022/04/13 04:25:40;;;;;;;10.05;5.40;;;15.10;91.00;;;;;;5034090;28;20033;-86
2022/04/13 04:28:10;;;;;;;14.32;5.80;;;15.00;91.10;;;;;;5017793;28;20033;-86
2022/04/13 04:30:35;;;;;;;11.52;5.28;;;15.00;91.20;;;;;;5033635;28;20431;-86
2022/04/13 04:33:01;;;;;;;10.57;5.68;;;14.90;91.30;;;;;;5034079;28;20116;-86
2022/04/13 04:35:27;;;;;;;13.48;5.72;;;14.90;91.50;;;;;;5001080;28;20484;-86
2022/04/13 04:37:52;;;;;;;11.98;5.63;;;14.90;91.60;;;;;;5017362;28;20487;-86
2022/04/13 04:40:18;;;;;;;13.15;5.40;;;14.80;91.70;;;;;;5034034;28;20029;-86
2022/04/13 04:42:49;;;;;;;13.73;6.70;;;14.80;91.80;;;;;;5017208;28;20469;-86
2022/04/13 04:45:17;;;;;;;10.10;5.80;;;14.80;91.90;;;;;;5033931;28;20113;-86
2022/04/13 04:47:42;;;;;;;9.95;5.72;;;14.70;92.00;;;;;;5033881;28;20030;-86
2022/04/13 04:50:12;;;;;;;11.77;6.65;;;14.70;92.00;;;;;;5034949;28;20084;-86
2022/04/13 04:52:45;;;;;;;13.05;6.03;;;14.70;92.00;;;;;;5034421;28;20060;-86
2022/04/13 04:55:12;;;;;;;11.73;5.90;;;14.60;92.10;;;;;;5032476;28;20037;-87
2022/04/13 04:57:38;;;;;;;16.23;7.03;;;14.60;92.20;;;;;;5000535;28;20094;-86
2022/04/13 05:00:10;;;;;;;11.45;6.40;;;14.60;92.30;;;;;;5033297;28;20089;-86
2022/04/13 05:02:37;;;;;;;10.23;5.68;;;14.50;92.40;;;;;;5033024;28;20041;-86
2022/04/13 05:05:06;;;;;;;11.45;6.40;;;14.50;92.60;;;;;;5033349;28;20148;-86
2022/04/13 05:07:32;;;;;;;11.70;6.63;;;14.40;92.70;;;;;;5017318;28;20399;-85
2022/04/13 05:09:58;;;;;;;8.20;5.65;;;14.40;92.90;;;;;;5034809;28;20452;-86
2022/04/13 05:12:24;;;;;;;13.50;6.35;;;14.40;93.10;;;;;;5017119;28;20037;-86
2022/04/13 05:14:52;;;;;;;10.82;5.85;;;14.40;93.30;;;;;;5033294;28;20037;-86
2022/04/13 05:17:18;;;;;;;10.27;6.22;;;14.40;93.40;;;;;;5001622;28;20164;-86
2022/04/13 05:19:44;;;;;;;12.30;7.07;;;14.30;93.60;;;;;;5033233;28;20033;-86
2022/04/13 05:22:10;;;;;;;10.10;6.85;;;14.30;93.70;;;;;;4994973;28;20026;-86
2022/04/13 05:24:35;;;;;;;9.85;5.93;;;14.30;93.90;;;;;;5012077;28;20045;-86
2022/04/13 05:27:01;;;;;;;11.23;6.70;;;14.30;94.10;;;;;;4996305;28;20395;-87
2022/04/13 05:29:27;;;;;;;11.88;6.68;;;14.20;94.30;;;;;;4997017;28;20037;-86
2022/04/13 05:31:53;;;;;;;14.13;7.00;;;14.20;94.40;;;;;;5013131;28;20422;-88
2022/04/13 05:34:18;;;;;;;13.45;7.20;;;14.20;94.60;;;;;;4989707;28;20117;-85
2022/04/13 05:36:45;;;;;;;11.57;7.50;;;14.20;94.80;;;;;;4998181;28;20080;-86
2022/04/13 05:39:11;;;;;;;14.73;6.97;;;14.20;95.10;;;;;;5014616;28;20075;-87
2022/04/13 05:41:41;;;;;;;12.48;7.88;;;14.10;95.20;;;;;;5013757;28;20034;-87
2022/04/13 05:44:07;;;;;;;11.45;6.70;;;14.20;95.50;;;;;;4996893;28;20030;-86
2022/04/13 05:46:33;;;;;;;10.02;6.60;;;14.20;95.70;;;;;;5013616;28;20037;-86
2022/04/13 05:49:00;;;;;;;14.63;8.57;;;14.20;96.00;;;;;;5012923;28;20484;-86
2022/04/13 05:51:26;;;;;;;12.85;8.32;;;14.10;96.20;;;;;;4980846;28;20029;-87
2022/04/13 05:53:51;;;;;;;13.43;8.02;;;14.20;96.40;;;;;;4996543;28;20030;-86
2022/04/13 05:56:17;;;;;;;13.88;8.60;;;14.20;96.60;;;;;;5013399;28;20029;-87
2022/04/13 05:58:43;;;;;;;14.43;7.90;;;14.20;96.80;;;;;;5012896;28;20108;-83
2022/04/13 06:01:09;;;;;;;13.23;8.55;;;14.20;97.00;;;;;;5012794;28;20092;-86
2022/04/13 06:03:35;;;;;;;12.35;8.27;;;14.20;97.10;;;;;;5012438;28;20089;-84
2022/04/13 06:06:00;;;;;;;14.45;9.13;;;14.20;97.40;;;;;;5012595;28;20060;-85
2022/04/13 06:08:26;;;;;;;15.88;8.75;;;14.20;97.60;;;;;;4996173;28;20030;-84
2022/04/13 06:10:51;;;;;;;13.80;8.38;;;14.20;97.90;;;;;;5014116;28;20415;-85
2022/04/13 06:13:17;;;;;;;14.77;9.70;;;14.20;98.10;;;;;;4996502;28;20048;-85
2022/04/13 06:15:44;;;;;;;15.95;10.15;;;14.20;98.30;;;;;;4996038;28;20409;-87
2022/04/13 06:18:10;;;;;;;15.15;9.68;;;14.20;98.50;;;;;;4980211;28;20026;-86
2022/04/13 06:20:36;;;;;;;17.35;9.98;;;14.20;98.70;;;;;;4996514;28;20464;-89
2022/04/13 06:23:02;;;;;;;19.83;10.45;;;14.30;98.90;;;;;;4998028;28;20032;-89
2022/04/13 06:25:27;;;;;;;16.02;10.88;;;14.30;99.00;;;;;;5013768;28;20163;-87
2022/04/13 06:27:53;;;;;;;17.27;10.35;;;14.30;99.20;;;;;;5012932;28;20030;-87
2022/04/13 06:30:20;;;;;;;15.38;9.82;;;14.30;99.40;;;;;;4996317;28;20079;-87
2022/04/13 06:32:46;;;;;;;18.58;10.05;;;14.30;99.60;;;;;;5012232;28;20034;-87
2022/04/13 06:35:14;;;;;;;24.25;12.65;;;14.40;99.80;;;;;;5012582;28;20037;-87
2022/04/13 06:37:41;;;;;;;14.10;10.25;;;14.40;99.90;;;;;;4995844;28;20030;-86
2022/04/13 06:40:07;;;;;;;15.90;10.88;;;14.40;99.90;;;;;;5012460;28;20121;-87
2022/04/13 06:42:36;;;;;;;14.68;11.10;;;14.50;99.90;;;;;;5012142;28;20074;-87
2022/04/13 06:45:06;;;;;;;15.43;11.63;;;14.50;99.90;;;;;;5012341;28;20399;-86
2022/04/13 06:47:32;;;;;;;16.63;11.10;;;14.60;99.90;;;;;;5012300;28;20429;-87
2022/04/13 06:49:58;;;;;;;14.82;11.35;;;14.60;99.90;;;;;;5011957;28;20124;-86
2022/04/13 06:52:24;;;;;;;17.08;11.32;;;14.60;99.90;;;;;;4995831;28;20032;-86
2022/04/13 06:54:49;;;;;;;19.58;12.52;;;14.70;99.90;;;;;;5012046;28;20046;-86
2022/04/13 06:57:15;;;;;;;16.05;11.07;;;14.70;99.90;;;;;;4979557;28;20037;-87
2022/04/13 06:59:41;;;;;;;19.95;11.93;;;14.70;99.90;;;;;;5013044;28;20025;-87
2022/04/13 07:02:10;;;;;;;19.25;12.50;;;14.70;99.90;;;;;;4979719;28;20101;-86
2022/04/13 07:04:37;;;;;;;21.70;13.40;;;14.80;99.90;;;;;;4996322;28;20133;-87
2022/04/13 07:07:02;;;;;;;18.13;12.45;;;14.80;99.90;;;;;;4979441;28;20507;-86
2022/04/13 07:09:28;;;;;;;20.95;14.38;;;14.90;99.90;;;;;;4979779;28;20026;-87
2022/04/13 07:11:54;;;;;;;21.50;14.23;;;14.90;99.90;;;;;;5012436;28;20053;-86
2022/04/13 07:14:20;;;;;;;21.63;15.63;;;14.90;99.90;;;;;;4998861;28;20052;-86
2022/04/13 07:16:46;;;;;;;24.08;15.13;;;15.00;99.90;;;;;;5036583;28;20014;-87
2022/04/13 07:19:11;;;;;;;21.60;15.20;;;15.00;99.90;;;;;;5004324;28;20050;-85
2022/04/13 07:21:37;;;;;;;21.08;15.02;;;15.00;99.90;;;;;;5020080;28;20018;-86
2022/04/13 07:24:03;;;;;;;19.05;13.93;;;15.00;99.90;;;;;;5020140;28;20021;-86
2022/04/13 07:26:29;;;;;;;18.70;14.32;;;15.10;99.90;;;;;;5037045;28;20034;-86
2022/04/13 07:28:54;;;;;;;19.38;14.10;;;15.10;99.90;;;;;;5003929;28;20040;-86
2022/04/13 07:31:23;;;;;;;21.48;14.90;;;15.10;99.90;;;;;;5030095;28;20022;-87
2022/04/13 07:33:49;;;;;;;21.13;14.57;;;15.10;99.90;;;;;;5020966;28;20121;-86
2022/04/13 07:36:14;;;;;;;20.52;16.98;;;15.20;99.90;;;;;;5011856;28;20499;-86
2022/04/13 07:38:40;;;;;;;24.50;15.75;;;15.20;99.90;;;;;;4995308;28;20381;-87
2022/04/13 07:41:06;;;;;;;23.17;15.43;;;15.30;99.90;;;;;;4995588;28;20041;-86
2022/04/13 07:43:31;;;;;;;22.80;15.73;;;15.20;99.90;;;;;;4995488;28;20472;-87
2022/04/13 07:45:57;;;;;;;24.38;16.13;;;15.30;99.90;;;;;;4979046;28;20042;-87
2022/04/13 07:48:23;;;;;;;21.92;15.70;;;15.30;99.90;;;;;;5013082;28;20037;-86
2022/04/13 07:50:48;;;;;;;20.08;14.38;;;15.40;99.90;;;;;;4995073;28;20073;-87
2022/04/13 07:53:14;;;;;;;22.70;15.45;;;15.40;99.90;;;;;;4999002;28;20464;-87
2022/04/13 07:55:40;;;;;;;18.75;13.50;;;15.40;99.90;;;;;;5016724;28;20034;-87
2022/04/13 07:58:06;;;;;;;18.75;13.25;;;15.40;99.90;;;;;;5015238;28;20523;-87
2022/04/13 08:00:32;;;;;;;24.30;15.60;;;15.50;99.90;;;;;;4999122;28;20034;-87
2022/04/13 08:02:58;;;;;;;21.70;14.88;;;15.50;99.90;;;;;;4998930;28;20064;-87
2022/04/13 08:05:24;;;;;;;22.05;15.63;;;15.50;99.90;;;;;;4999029;28;20034;-87
2022/04/13 08:07:50;;;;;;;21.10;15.07;;;15.50;99.90;;;;;;4999156;28;20033;-86
2022/04/13 08:10:16;;;;;;;25.98;15.75;;;15.60;99.90;;;;;;5015665;28;20026;-87
2022/04/13 08:12:42;;;;;;;21.92;14.57;;;15.60;99.90;;;;;;4999598;28;20108;-86
2022/04/13 08:15:09;;;;;;;23.30;15.27;;;15.60;99.90;;;;;;5030696;28;20061;-87
2022/04/13 08:17:34;;;;;;;21.15;14.65;;;15.70;99.90;;;;;;5025952;28;20034;-87
2022/04/13 08:20:00;;;;;;;19.42;16.10;;;15.70;99.90;;;;;;5017900;28;20026;-87
2022/04/13 08:22:27;;;;;;;21.02;15.10;;;15.80;99.90;;;;;;5017378;28;20061;-87
2022/04/13 08:24:53;;;;;;;23.00;15.05;;;15.80;99.90;;;;;;5015536;28;20038;-87
2022/04/13 08:27:19;;;;;;;19.98;14.60;;;15.80;99.90;;;;;;5015264;28;20546;-88
2022/04/13 08:29:46;;;;;;;20.52;14.85;;;15.80;99.90;;;;;;5016199;28;20456;-87
2022/04/13 08:32:15;;;;;;;20.70;15.15;;;15.90;99.90;;;;;;5016109;28;20061;-88
2022/04/13 08:34:41;;;;;;;20.33;15.02;;;15.90;99.90;;;;;;5014354;28;20033;-86
2022/04/13 08:37:06;;;;;;;20.55;13.48;;;15.90;99.90;;;;;;4998297;28;20098;-86
2022/04/13 08:39:32;;;;;;;21.15;13.77;;;16.00;99.90;;;;;;5013901;28;20431;-86
2022/04/13 08:42:07;;;;;;;19.95;12.50;;;16.00;99.90;;;;;;5013677;28;20096;-86
2022/04/13 08:44:48;;;;;;;16.70;11.52;;;16.10;99.90;;;;;;5014096;28;20041;-86
2022/04/13 08:47:22;;;;;;;17.60;11.48;;;16.10;99.90;;;;;;5013976;28;20022;-86
2022/04/13 08:49:52;;;;;;;17.50;11.07;;;16.20;99.90;;;;;;4997978;28;20030;-86
2022/04/13 08:52:39;;;;;;;18.85;12.05;;;16.20;99.90;;;;;;5015670;28;20022;-86
2022/04/13 08:55:11;;;;;;;17.48;11.70;;;16.30;99.90;;;;;;5014181;28;20038;-86
2022/04/13 08:57:46;;;;;;;16.35;11.02;;;16.40;99.90;;;;;;5014295;28;20112;-86
2022/04/13 09:00:16;;;;;;;17.38;11.40;;;16.40;99.90;;;;;;5014224;28;20430;-86
2022/04/13 09:02:48;;;;;;;16.77;10.93;;;16.50;99.90;;;;;;4996902;28;20050;-86
2022/04/13 09:05:19;;;;;;;13.50;10.65;;;16.60;99.90;;;;;;5013135;28;20504;-86
2022/04/13 09:08:05;;;;;;;17.70;10.93;;;16.60;99.90;;;;;;4997836;28;20030;-86
2022/04/13 09:10:31;;;;;;;15.50;9.18;;;16.70;99.90;;;;;;5014026;28;20025;-87
2022/04/13 09:12:59;;;;;;;16.45;9.90;;;16.80;99.90;;;;;;4997344;28;20125;-88
2022/04/13 09:15:25;;;;;;;14.98;9.13;;;16.80;99.90;;;;;;5015044;28;20036;-86
2022/04/13 09:17:51;;;;;;;14.52;9.10;;;16.90;99.90;;;;;;5013980;28;20164;-86
2022/04/13 09:20:17;;;;;;;13.98;8.68;;;16.90;99.90;;;;;;5013450;28;20061;-86
2022/04/13 09:22:43;;;;;;;14.15;7.60;;;17.00;99.90;;;;;;4997534;28;20467;-86
2022/04/13 09:25:09;;;;;;;12.45;7.93;;;17.10;99.90;;;;;;4980714;28;20041;-86
2022/04/13 09:27:39;;;;;;;11.45;7.57;;;17.10;99.90;;;;;;4997225;28;20064;-86
2022/04/13 09:30:06;;;;;;;10.50;6.72;;;17.20;99.90;;;;;;5014803;28;20137;-86
2022/04/13 09:32:32;;;;;;;10.25;6.53;;;17.30;99.90;;;;;;5013412;28;20030;-86
2022/04/13 09:34:59;;;;;;;11.07;7.18;;;17.40;99.90;;;;;;5013189;28;20124;-86
2022/04/13 09:37:25;;;;;;;9.25;6.13;;;17.50;99.90;;;;;;5014972;28;20030;-86
2022/04/13 09:39:51;;;;;;;9.27;5.88;;;17.50;99.90;;;;;;4997239;28;20026;-86
2022/04/13 09:42:18;;;;;;;9.13;5.55;;;17.60;99.90;;;;;;4996825;28;20029;-86
2022/04/13 09:44:55;;;;;;;11.35;5.85;;;17.70;99.90;;;;;;4981306;28;20563;-86
2022/04/13 09:47:20;;;;;;;8.48;5.95;;;17.80;99.90;;;;;;5013161;28;20022;-86
2022/04/13 09:49:53;;;;;;;9.45;6.57;;;17.90;99.90;;;;;;5013243;28;20060;-86
2022/04/13 09:52:39;;;;;;;10.73;6.30;;;18.00;99.90;;;;;;4982023;28;20022;-86
2022/04/13 09:55:07;;;;;;;9.73;6.20;;;18.00;99.90;;;;;;5014096;28;20053;-86
2022/04/13 09:57:33;;;;;;;9.38;5.22;;;18.00;99.90;;;;;;5012834;28;20361;-86
2022/04/13 10:00:06;;;;;;;8.80;5.32;;;18.10;99.90;;;;;;5012682;28;20037;-86
2022/04/13 10:02:40;;;;;;;8.57;5.38;;;18.10;99.90;;;;;;4996260;28;20574;-86
2022/04/13 10:05:17;;;;;;;8.35;4.88;;;18.10;99.90;;;;;;4996713;28;20042;-86
2022/04/13 10:07:43;;;;;;;10.02;5.40;;;18.20;99.90;;;;;;5012349;28;20025;-86
2022/04/13 10:10:23;;;;;;;9.00;5.18;;;18.20;99.90;;;;;;4996128;28;20132;-86
2022/04/13 10:12:49;;;;;;;9.68;5.10;;;18.20;99.90;;;;;;5014157;28;20049;-87
2022/04/13 10:15:15;;;;;;;7.55;4.47;;;18.20;99.90;;;;;;5012453;28;20064;-86
2022/04/13 10:17:41;;;;;;;9.70;4.95;;;18.20;99.90;;;;;;5012939;28;20026;-87
2022/04/13 10:20:08;;;;;;;8.23;5.35;;;18.20;99.90;;;;;;4996209;28;20033;-85
2022/04/13 10:22:33;;;;;;;10.27;5.82;;;18.30;99.90;;;;;;5013056;28;20108;-86
2022/04/13 10:25:20;;;;;;;8.85;5.68;;;18.30;99.90;;;;;;5012749;28;20128;-89
2022/04/13 10:27:57;;;;;;;9.13;6.40;;;18.30;99.90;;;;;;4996535;28;20022;-87
2022/04/13 10:30:29;;;;;;;13.25;7.40;;;18.30;99.90;;;;;;5012971;28;20026;-86
2022/04/13 10:33:02;;;;;;;10.07;7.18;;;18.30;99.90;;;;;;5012743;28;20120;-87
2022/04/13 10:35:29;;;;;;;12.07;7.60;;;18.30;99.60;;;;;;5012635;28;20504;-87
2022/04/13 10:37:55;;;;;;;9.95;7.07;;;18.30;99.70;;;;;;5014648;28;20018;-90
2022/04/13 10:40:42;;;;;;;10.68;7.15;;;18.30;99.80;;;;;;4996713;28;20125;-86
2022/04/13 10:43:09;;;;;;;9.07;6.55;;;18.30;99.90;;;;;;5016392;28;20092;-86
2022/04/13 10:45:39;;;;;;;10.55;6.38;;;18.30;99.90;;;;;;5005886;28;20069;-86
2022/04/13 10:48:05;;;;;;;9.55;6.10;;;18.30;99.90;;;;;;5015919;28;20028;-86
2022/04/13 10:50:59;;;;;;;9.98;6.10;;;18.40;99.90;;;;;;5013441;28;20029;-86
2022/04/13 10:53:28;;;;;;;9.70;5.15;;;18.40;99.90;;;;;;5013635;28;20030;-86
2022/04/13 10:56:05;;;;;;;8.30;5.47;;;18.40;99.90;;;;;;5012377;28;20037;-86
2022/04/13 10:59:13;;;;;;;8.20;4.35;;;18.40;99.90;;;;;;4998317;28;20037;-86
2022/04/13 11:01:45;;;;;;;8.23;3.92;;;18.40;99.80;;;;;;5034150;28;20037;-85
2022/04/13 11:04:12;;;;;;;9.20;4.78;;;18.40;99.50;;;;;;5036175;28;20038;-86
2022/04/13 11:06:44;;;;;;;6.45;4.10;;;18.40;99.40;;;;;;5037019;28;20006;-85
2022/04/13 11:09:15;;;;;;;6.60;4.22;;;18.40;99.40;;;;;;5031791;28;20033;-86
2022/04/13 11:11:41;;;;;;;7.50;4.30;;;18.40;99.60;;;;;;5013529;28;20048;-86
2022/04/13 11:14:20;;;;;;;7.07;4.43;;;18.50;99.80;;;;;;5013567;28;20018;-86
2022/04/13 11:16:46;;;;;;;8.05;4.88;;;18.50;99.50;;;;;;5020407;28;20037;-86
2022/04/13 11:19:12;;;;;;;8.70;4.72;;;18.50;99.00;;;;;;4998308;28;20468;-86
2022/04/13 11:22:04;;;;;;;9.75;5.32;;;18.40;98.80;;;;;;5013342;28;20030;-85
2022/04/13 11:24:40;;;;;;;12.40;5.95;;;18.40;98.60;;;;;;5006927;28;20049;-84
2022/04/13 11:27:07;;;;;;;10.30;5.63;;;18.40;98.60;;;;;;5013050;28;20033;-86
2022/04/13 11:29:37;;;;;;;8.55;4.65;;;18.40;98.70;;;;;;5017473;28;20021;-85
2022/04/13 11:32:04;;;;;;;8.13;4.38;;;18.40;98.50;;;;;;5016603;28;20029;-85
2022/04/13 11:34:43;;;;;;;6.88;4.28;;;18.40;98.60;;;;;;5015826;28;20029;-85
2022/04/13 11:37:20;;;;;;;9.35;4.63;;;18.40;98.00;;;;;;5016801;28;20026;-86
2022/04/13 11:39:59;;;;;;;9.05;4.35;;;18.40;97.90;;;;;;5015517;28;20407;-85
2022/04/13 11:45:25;;;;;;;8.05;4.47;;;18.40;98.30;;;;;;5014351;28;20037;-85
2022/04/13 11:47:50;;;;;;;10.15;4.72;;;18.40;98.00;;;;;;5017042;28;20034;-85
2022/04/13 11:50:19;;;;;;;8.07;4.55;;;18.30;98.00;;;;;;5015539;28;20089;-85
2022/04/13 11:53:13;;;;;;;9.50;4.78;;;18.40;98.00;;;;;;5016826;28;20029;-85
2022/04/13 11:55:42;;;;;;;8.15;4.03;;;18.40;97.60;;;;;;5016818;28;20391;-85
2022/04/13 11:58:07;;;;;;;8.07;4.40;;;18.30;97.70;;;;;;5016430;28;20029;-85
2022/04/13 12:00:45;;;;;;;7.70;4.20;;;18.30;97.80;;;;;;5016427;28;20473;-85
2022/04/13 12:03:11;;;;;;;7.70;4.50;;;18.30;98.00;;;;;;5014426;28;20116;-85
2022/04/13 12:05:42;;;;;;;10.40;4.90;;;18.40;98.00;;;;;;5016143;28;20038;-85
2022/04/13 12:08:16;;;;;;;10.93;6.60;;;18.40;98.10;;;;;;5014751;28;20117;-85
2022/04/13 12:10:50;;;;;;;11.45;6.25;;;18.40;98.20;;;;;;5016398;28;20100;-85
2022/04/13 12:13:16;;;;;;;11.73;6.63;;;18.40;98.20;;;;;;5014469;28;20387;-85
2022/04/13 12:15:52;;;;;;;10.70;6.15;;;18.40;98.20;;;;;;4982237;28;20037;-85
2022/04/13 12:18:23;;;;;;;11.93;5.63;;;18.40;98.30;;;;;;5014762;28;20018;-85
2022/04/13 12:20:50;;;;;;;11.48;4.55;;;18.40;98.20;;;;;;5014561;28;20029;-85
2022/04/13 12:23:25;;;;;;;11.45;6.95;;;18.40;98.20;;;;;;5014464;28;20341;-85
2022/04/13 12:25:55;;;;;;;8.48;5.97;;;18.40;98.00;;;;;;5014341;28;20045;-85
2022/04/13 12:28:24;;;;;;;11.02;5.90;;;18.40;98.10;;;;;;5001844;28;20098;-85
2022/04/13 12:30:59;;;;;;;10.15;5.60;;;18.40;98.30;;;;;;5020163;28;20030;-85
2022/04/13 12:33:26;;;;;;;12.82;5.03;;;18.40;98.40;;;;;;5015737;28;20026;-85
2022/04/13 12:36:01;;;;;;;11.50;5.78;;;18.40;98.60;;;;;;5014494;28;20026;-85
2022/04/13 12:38:43;;;;;;;9.70;4.90;;;18.40;98.70;;;;;;5013728;28;20072;-85
2022/04/13 12:41:15;;;;;;;12.80;5.18;;;18.50;98.90;;;;;;5014441;28;20022;-85
2022/04/13 12:44:03;;;;;;;8.15;5.00;;;18.50;98.90;;;;;;5015420;28;20022;-85
2022/04/13 12:46:32;;;;;;;10.20;4.82;;;18.40;98.80;;;;;;5015005;28;20194;-85